Detalii statie SADELLI PRODCOM [00001D03]

Toti senzorii

Date Temperatura solului [C]Precipitatii [mm]Voltaj baterie [mV]Leaf Wetness [Min]HC Air temperature [C]HC Relative humidity [%]Punctul de roua [C]
medieminmaxsumaultimatimpmedieminmaxmediemediemin
2020-06-02 07:00:00 12.1 12 12.4 0 6748 5.51 5.01 6.27 0 0 0
2020-06-02 08:00:00 12.1 11.9 12.4 0 6826 9 6.84 11.12 0 0 0
2020-06-02 09:00:00 12.9 12.4 13.7 0 6884 12.33 11.2 13.78 0 0 0
2020-06-02 10:00:00 14.9 13.8 16 0 6962 14.82 13.45 16.03 0.86 -4.2 0
2020-06-02 11:00:00 16.8 16.2 17 0 7080 15.64 15.06 16.32 7.67 0
2020-06-02 12:00:00 17 16.8 17.4 0 7186 16.55 15.85 17.01 11.18 0
2020-06-02 13:00:00 17.6 17.3 18 0 7196 16.77 16.18 17.49 21.17 -5.9 -8.1
2020-06-02 14:00:00 18.4 18 19.2 0 7196 17.76 16.68 19.77 25.5 -2.9 -9.4
2020-06-02 15:00:00 20.6 19.3 21.7 0 7196 19.59 18.02 21.01 30.35 1.4 -0.6
2020-06-02 16:00:00 22.2 21.7 22.9 0 7196 20.62 18.61 21.99 33.83 3.9 2.1
2020-06-02 17:00:00 22.9 22.7 23.1 0 7186 20.71 19.22 21.55 37.68 5.5 4.6
2020-06-02 18:00:00 23 22.7 23.3 0 7098 20.36 19.59 21.01 38.12 5.4 4
2020-06-02 19:00:00 22.2 21.7 22.7 0 7176 19.53 18.26 21.54 40.74 5.6 5
2020-06-02 20:00:00 21 20.4 21.7 0 7176 17.31 15.83 18.42 37.5 2 -3.1
2020-06-02 21:00:00 19.7 19 20.4 0 6844 15.74 14.61 18.65 2.18 0
2020-06-02 22:00:00 18.4 18 19 0 6756 13.53 12.94 14.45 0 0 0
2020-06-02 23:00:00 17.5 17.1 18 0 6756 11.95 10.75 12.98 0 0 0
2020-06-03 00:00:00 16.6 16.3 17 0 6738 9.78 9.09 10.53 0 0 0
2020-06-03 01:00:00 15.7 15.3 16.1 0 6718 8.81 8.33 9.15 0 0 0
2020-06-03 02:00:00 15 14.8 15.5 0 6708 8.15 7.84 8.85 0 0 0
2020-06-03 03:00:00 14.3 14.1 14.7 0 6708 8.11 7.69 8.58 0 0 0
2020-06-03 04:00:00 13.8 13.7 14.1 0 6708 8.99 8.24 10.06 0 0 0
2020-06-03 05:00:00 13.7 13.7 13.8 0 6698 10.02 9.87 10.15 0 0 0
2020-06-03 06:00:00 13.6 13.5 13.8 0 6698 10.23 10.15 10.38 0 0 0
2020-06-03 07:00:00 13.5 13.5 13.6 0 6738 10.07 9.85 10.29 0 0 0
2020-06-03 08:00:00 13.5 13.4 13.7 0 6844 10.96 10.24 11.46 0 0 0
2020-06-03 09:00:00 13.8 13.7 14.1 0 6972 12.48 11.4 14.42 0 0 0
2020-06-03 10:00:00 15.2 14.4 16.3 0 7060 15.36 14.49 16.59 0 0 0
2020-06-03 11:00:00 17.3 16.3 18.4 0 7196 17.28 15.83 18.25 0 0 0
2020-06-03 12:00:00 18.8 18.5 19.1 0 7080 17.45 16.87 18.07 0 0 0
2020-06-03 13:00:00 19.4 19 20.4 0 7196 18.53 16.84 20.26 0 0 0
2020-06-03 14:00:00 21.6 20.7 22.2 0 7176 20.24 19.51 21.27 2.68 -10.8 0
2020-06-03 15:00:00 21.5 20.8 22.3 1 7186 15.92 14.29 19.27 0 0 0
2020-06-03 16:00:00 20.5 20.3 20.9 0 7196 16.41 14.34 18.24 0 0 0
2020-06-03 17:00:00 21.5 21 21.9 0 6834 18.91 17.87 19.62 10.73 -5.4 0
2020-06-03 18:00:00 21.1 20.9 21.7 2.2 7196 17.58 16.99 18.15 3.93 -0.6 0
2020-06-03 19:00:00 20.8 20.6 21.1 0 7186 17.67 16.87 18.22 0 0 0
2020-06-03 20:00:00 19.8 19.4 20.4 0 7186 16.78 16.57 16.91 0 0 0
2020-06-03 21:00:00 18.9 18.6 19.3 0 6806 16.08 15.37 16.83 0 0 0
2020-06-03 22:00:00 18 17.6 18.5 0 6766 14.45 14.13 15.26 0 0 0
2020-06-03 23:00:00 17.1 16.8 17.5 0.2 6748 13.46 13.14 14.09 0 0 0
2020-06-04 00:00:00 16.5 16.2 16.9 0 6738 13.4 13.1 13.75 0 0 0
2020-06-04 01:00:00 16 15.8 16.4 0 6728 13.31 12.63 13.7 0 0 0
2020-06-04 02:00:00 15.4 15.2 15.7 0 6728 12.39 12.27 12.52 0 0 0
2020-06-04 03:00:00 14.9 14.5 15.1 0 6718 11.95 11.37 12.45 0 0 0
2020-06-04 04:00:00 14.3 14.2 14.6 0 6708 11.82 11.62 11.99 0 0 0
2020-06-04 05:00:00 13.9 13.8 14.3 0 6688 11.52 11.28 11.69 0 0 0
2020-06-04 06:00:00 13.6 13.4 13.8 0 6688 11.3 11.15 11.46 0 0 0